Time;durP1;ratioP1;P1;durP2;ratioP2;P2;SDS_P1;SDS_P2;PMS_P1;PMS_P2;Temp;Humidity;BMP_temperature;BMP_pressure;BME280_temperature;BME280_humidity;BME280_pressure;Samples;Min_cycle;Max_cycle;Signal;HPM_P1;HPM_P2
2022/11/21 00:01:14;;;;;;;2.30;1.33;;;;;;;;;;5115895;27;20734;-85
2022/11/21 00:03:40;;;;;;;2.42;1.38;;;;;;;;;;5123056;27;20879;-85
2022/11/21 00:06:06;;;;;;;1.85;1.55;;;;;;;;;;5113617;27;20810;-85
2022/11/21 00:08:32;;;;;;;1.63;1.30;;;;;;;;;;5113022;27;20376;-85
2022/11/21 00:10:59;;;;;;;1.70;1.60;;;;;;;;;;5112337;27;20419;-86
2022/11/21 00:13:25;;;;;;;2.55;1.58;;;;;;;;;;5117040;27;20913;-85
2022/11/21 00:15:51;;;;;;;2.40;1.80;;;;;;;;;;5114361;27;20368;-87
2022/11/21 00:18:17;;;;;;;2.10;1.90;;;;;;;;;;5130581;27;20379;-86
2022/11/21 00:20:43;;;;;;;2.00;1.80;;;;;;;;;;5133926;27;20815;-85
2022/11/21 00:23:10;;;;;;;2.43;2.03;;;;;;;;;;5133084;27;20382;-86
2022/11/21 00:25:36;;;;;;;2.38;1.90;;;;;;;;;;5133596;27;20701;-85
2022/11/21 00:28:02;;;;;;;2.47;2.25;;;;;;;;;;5133503;27;20377;-85
2022/11/21 00:30:28;;;;;;;2.50;2.30;;;;;;;;;;5133307;27;20479;-85
2022/11/21 00:32:54;;;;;;;2.35;2.05;;;;;;;;;;5127335;27;20445;-85
2022/11/21 00:35:20;;;;;;;2.22;1.98;;;;;;;;;;5130797;27;20363;-85
2022/11/21 00:37:47;;;;;;;2.30;2.00;;;;;;;;;;5133185;27;20363;-86
2022/11/21 00:40:13;;;;;;;2.70;2.13;;;;;;;;;;5133335;27;20370;-85
2022/11/21 00:42:39;;;;;;;2.40;1.98;;;;;;;;;;5130003;27;20375;-86
2022/11/21 00:45:05;;;;;;;2.40;2.20;;;;;;;;;;5133156;27;20887;-86
2022/11/21 00:47:31;;;;;;;2.67;2.47;;;;;;;;;;5133064;27;20439;-85
2022/11/21 00:49:57;;;;;;;2.53;2.25;;;;;;;;;;5133350;27;20379;-85
2022/11/21 00:52:23;;;;;;;2.53;2.33;;;;;;;;;;5132915;27;20382;-85
2022/11/21 00:54:49;;;;;;;2.57;2.30;;;;;;;;;;5138688;27;20377;-85
2022/11/21 00:57:15;;;;;;;3.03;2.17;;;;;;;;;;5129205;27;20390;-85
2022/11/21 00:59:41;;;;;;;3.22;2.45;;;;;;;;;;5112921;28;20387;-86
2022/11/21 01:02:07;;;;;;;2.47;2.28;;;;;;;;;;5113332;28;20940;-85
2022/11/21 01:04:34;;;;;;;3.08;2.30;;;;;;;;;;5113081;28;20392;-85
2022/11/21 01:07:00;;;;;;;2.50;2.20;;;;;;;;;;5114338;28;20736;-84
2022/11/21 01:09:27;;;;;;;2.78;2.20;;;;;;;;;;5143421;27;20456;-85
2022/11/21 01:11:53;;;;;;;3.38;2.10;;;;;;;;;;5133950;27;20429;-85
2022/11/21 01:14:19;;;;;;;3.63;2.10;;;;;;;;;;5134623;27;20792;-85
2022/11/21 01:16:45;;;;;;;2.35;1.70;;;;;;;;;;5132949;27;20371;-85
2022/11/21 01:19:11;;;;;;;3.20;1.75;;;;;;;;;;5132832;27;20371;-86
2022/11/21 01:21:37;;;;;;;3.13;1.60;;;;;;;;;;5132638;27;20470;-85
2022/11/21 01:24:03;;;;;;;2.90;1.58;;;;;;;;;;5132777;27;20390;-85
2022/11/21 01:26:30;;;;;;;2.10;1.30;;;;;;;;;;5132432;27;20378;-85
2022/11/21 01:28:57;;;;;;;2.78;1.27;;;;;;;;;;5132752;27;20389;-86
2022/11/21 01:31:24;;;;;;;3.90;1.60;;;;;;;;;;5132655;27;20406;-86
2022/11/21 01:33:50;;;;;;;2.53;1.40;;;;;;;;;;5123643;27;20853;-86
2022/11/21 01:36:18;;;;;;;3.72;1.23;;;;;;;;;;5132713;27;20378;-85
2022/11/21 01:38:46;;;;;;;2.65;1.25;;;;;;;;;;5132490;27;20378;-85
2022/11/21 01:41:12;;;;;;;2.47;1.30;;;;;;;;;;5132599;27;20504;-86
2022/11/21 01:43:38;;;;;;;3.42;1.30;;;;;;;;;;5132639;27;20387;-85
2022/11/21 01:46:07;;;;;;;2.10;1.25;;;;;;;;;;5132487;27;20386;-85
2022/11/21 01:48:36;;;;;;;2.17;1.15;;;;;;;;;;5132559;27;20425;-85
2022/11/21 01:51:05;;;;;;;2.40;1.30;;;;;;;;;;5132476;27;20794;-86
2022/11/21 01:53:32;;;;;;;3.72;1.40;;;;;;;;;;5132505;27;20838;-85
2022/11/21 01:55:58;;;;;;;3.07;1.20;;;;;;;;;;5132433;27;20454;-85
2022/11/21 01:58:24;;;;;;;4.03;1.20;;;;;;;;;;5132472;27;20401;-85
2022/11/21 02:00:50;;;;;;;1.77;1.00;;;;;;;;;;5132664;27;20800;-86
2022/11/21 02:03:20;;;;;;;2.40;1.00;;;;;;;;;;5132452;27;20709;-85
2022/11/21 02:05:46;;;;;;;1.83;1.20;;;;;;;;;;5132204;27;20951;-85
2022/11/21 02:08:18;;;;;;;2.45;1.13;;;;;;;;;;5132135;27;20759;-85
2022/11/21 02:10:58;;;;;;;1.77;1.00;;;;;;;;;;5132277;27;20514;-85
2022/11/21 02:13:24;;;;;;;2.05;1.33;;;;;;;;;;5127389;27;20430;-85
2022/11/21 02:15:50;;;;;;;2.25;1.10;;;;;;;;;;5132404;27;20851;-85
2022/11/21 02:18:16;;;;;;;2.45;1.10;;;;;;;;;;5114104;27;20479;-85
2022/11/21 02:20:44;;;;;;;1.83;1.05;;;;;;;;;;5132227;27;20402;-86
2022/11/21 02:23:42;;;;;;;1.08;0.98;;;;;;;;;;5132039;27;20401;-86
2022/11/21 02:26:09;;;;;;;2.22;1.10;;;;;;;;;;5076210;28;20453;-85
2022/11/21 02:28:35;;;;;;;1.75;0.90;;;;;;;;;;5133380;27;20377;-85
2022/11/21 02:31:01;;;;;;;1.43;1.10;;;;;;;;;;5135802;27;20485;-85
2022/11/21 02:33:27;;;;;;;1.50;1.08;;;;;;;;;;5126819;27;20380;-85
2022/11/21 02:36:00;;;;;;;1.25;1.15;;;;;;;;;;5135835;27;20402;-85
2022/11/21 02:38:28;;;;;;;1.73;1.30;;;;;;;;;;5135626;27;20430;-86
2022/11/21 02:41:00;;;;;;;1.30;1.07;;;;;;;;;;5135658;27;20426;-84
2022/11/21 02:43:32;;;;;;;2.10;1.20;;;;;;;;;;5135791;27;20451;-86
2022/11/21 02:45:58;;;;;;;1.30;1.20;;;;;;;;;;5135181;27;20776;-85
2022/11/21 02:48:24;;;;;;;1.55;0.85;;;;;;;;;;5135602;27;20375;-85
2022/11/21 02:50:50;;;;;;;1.80;1.00;;;;;;;;;;5132204;27;20397;-85
2022/11/21 02:53:17;;;;;;;1.55;1.02;;;;;;;;;;5135252;27;20373;-85
2022/11/21 02:55:43;;;;;;;1.05;0.90;;;;;;;;;;5135392;27;20439;-85
2022/11/21 02:58:09;;;;;;;1.67;1.10;;;;;;;;;;5135309;27;20391;-85
2022/11/21 03:00:36;;;;;;;2.78;1.52;;;;;;;;;;5135276;27;20375;-86
2022/11/21 03:03:02;;;;;;;1.60;1.10;;;;;;;;;;5127201;27;20739;-86
2022/11/21 03:05:28;;;;;;;2.20;1.20;;;;;;;;;;5124786;27;21039;-86
2022/11/21 03:07:54;;;;;;;2.28;1.50;;;;;;;;;;5124561;27;20433;-85
2022/11/21 03:10:20;;;;;;;1.60;1.50;;;;;;;;;;5134289;27;20407;-86
2022/11/21 03:12:46;;;;;;;2.47;1.40;;;;;;;;;;5118822;27;20373;-86
2022/11/21 03:15:13;;;;;;;1.60;1.17;;;;;;;;;;5120764;27;20781;-85
2022/11/21 03:17:39;;;;;;;2.50;1.27;;;;;;;;;;5116286;27;20380;-85
2022/11/21 03:20:06;;;;;;;2.40;1.60;;;;;;;;;;5119414;27;20465;-87
2022/11/21 03:22:32;;;;;;;2.50;1.30;;;;;;;;;;5115897;27;20383;-85
2022/11/21 03:24:58;;;;;;;2.13;1.40;;;;;;;;;;5117270;27;20388;-85
2022/11/21 03:27:24;;;;;;;2.40;1.60;;;;;;;;;;5117631;27;20368;-85
2022/11/21 03:29:50;;;;;;;2.65;1.42;;;;;;;;;;5114826;27;20383;-86
2022/11/21 03:32:16;;;;;;;3.57;1.50;;;;;;;;;;5118099;27;20633;-85
2022/11/21 03:34:42;;;;;;;3.05;1.50;;;;;;;;;;5116566;27;20848;-85
2022/11/21 03:37:08;;;;;;;1.55;1.38;;;;;;;;;;5118375;27;20377;-85
2022/11/21 03:39:34;;;;;;;6.15;1.50;;;;;;;;;;5116379;27;20369;-85
2022/11/21 03:42:00;;;;;;;3.05;1.50;;;;;;;;;;5118982;27;20898;-85
2022/11/21 03:44:26;;;;;;;2.47;1.30;;;;;;;;;;5118765;27;20380;-85
2022/11/21 03:46:52;;;;;;;2.67;1.50;;;;;;;;;;5121814;27;20461;-85
2022/11/21 03:49:18;;;;;;;1.85;1.40;;;;;;;;;;5119729;27;20460;-84
2022/11/21 03:51:44;;;;;;;2.75;1.35;;;;;;;;;;5120589;27;20435;-85
2022/11/21 03:54:10;;;;;;;1.75;1.30;;;;;;;;;;5116997;27;20388;-84
2022/11/21 03:56:38;;;;;;;3.13;1.50;;;;;;;;;;5119362;27;20367;-85
2022/11/21 03:59:04;;;;;;;2.80;1.42;;;;;;;;;;5115740;27;20379;-85
2022/11/21 04:01:30;;;;;;;2.07;1.30;;;;;;;;;;5112622;27;20760;-86
2022/11/21 04:03:56;;;;;;;3.58;1.50;;;;;;;;;;5117608;27;20467;-85
2022/11/21 04:06:22;;;;;;;4.13;1.83;;;;;;;;;;5130449;27;20375;-86
2022/11/21 04:08:49;;;;;;;1.92;1.45;;;;;;;;;;5130628;27;20489;-85
2022/11/21 04:11:15;;;;;;;3.72;1.60;;;;;;;;;;5133217;27;20443;-85
2022/11/21 04:13:41;;;;;;;3.15;1.83;;;;;;;;;;5133882;27;20371;-85
2022/11/21 04:16:07;;;;;;;4.03;1.60;;;;;;;;;;5115283;27;20454;-86
2022/11/21 04:18:34;;;;;;;2.80;1.40;;;;;;;;;;5133793;27;20371;-84
2022/11/21 04:21:00;;;;;;;2.10;1.20;;;;;;;;;;5115503;27;20465;-85
2022/11/21 04:23:27;;;;;;;1.85;1.27;;;;;;;;;;5130786;27;20397;-85
2022/11/21 04:25:53;;;;;;;2.05;1.10;;;;;;;;;;5123753;27;20705;-86
2022/11/21 04:28:19;;;;;;;2.53;1.27;;;;;;;;;;5118410;27;20373;-86
2022/11/21 04:30:45;;;;;;;3.07;1.20;;;;;;;;;;5132568;27;20395;-86
2022/11/21 04:33:11;;;;;;;2.83;1.30;;;;;;;;;;5126143;27;20744;-85
2022/11/21 04:35:37;;;;;;;2.70;1.50;;;;;;;;;;5126916;27;20872;-86
2022/11/21 04:38:03;;;;;;;3.58;1.20;;;;;;;;;;5119508;27;20384;-86
2022/11/21 04:40:29;;;;;;;4.50;1.17;;;;;;;;;;5115807;27;20932;-86
2022/11/21 04:42:55;;;;;;;2.10;1.10;;;;;;;;;;5108202;27;20381;-87
2022/11/21 04:45:21;;;;;;;2.70;1.10;;;;;;;;;;5118227;27;20374;-84
2022/11/21 04:47:49;;;;;;;4.45;1.20;;;;;;;;;;5110483;27;20795;-84
2022/11/21 04:50:15;;;;;;;3.15;1.00;;;;;;;;;;5110860;27;20411;-85
2022/11/21 04:52:42;;;;;;;4.57;1.42;;;;;;;;;;5117351;27;20401;-86
2022/11/21 04:55:08;;;;;;;4.63;1.15;;;;;;;;;;5125956;27;20432;-87
2022/11/21 04:57:35;;;;;;;3.78;1.10;;;;;;;;;;5111468;27;20376;-86
2022/11/21 05:00:01;;;;;;;3.50;1.20;;;;;;;;;;5113983;27;20428;-85
2022/11/21 05:02:27;;;;;;;3.85;1.25;;;;;;;;;;5131250;27;20382;-85
2022/11/21 05:04:53;;;;;;;3.00;1.00;;;;;;;;;;5131379;27;20367;-85
2022/11/21 05:07:19;;;;;;;3.30;1.27;;;;;;;;;;5132929;27;20700;-85
2022/11/21 05:09:45;;;;;;;4.50;1.60;;;;;;;;;;5135296;27;20378;-85
2022/11/21 05:14:56;;;;;;;4.85;1.60;;;;;;;;;;5135991;27;20471;-85
2022/11/21 05:17:22;;;;;;;4.75;1.67;;;;;;;;;;5132803;27;20410;-85
2022/11/21 05:19:48;;;;;;;4.80;1.25;;;;;;;;;;5129479;27;20417;-85
2022/11/21 05:22:14;;;;;;;2.97;1.30;;;;;;;;;;5132811;27;20432;-85
2022/11/21 05:24:40;;;;;;;3.23;1.37;;;;;;;;;;5132685;27;20463;-85
2022/11/21 05:27:06;;;;;;;3.60;1.40;;;;;;;;;;5132750;27;20425;-84
2022/11/21 05:29:32;;;;;;;3.55;1.20;;;;;;;;;;5132546;27;20743;-85
2022/11/21 05:31:58;;;;;;;3.47;1.35;;;;;;;;;;5132599;27;20391;-85
2022/11/21 05:34:24;;;;;;;3.35;1.33;;;;;;;;;;5123798;27;20404;-85
2022/11/21 05:36:58;;;;;;;3.07;1.00;;;;;;;;;;5132641;27;20371;-84
2022/11/21 05:39:24;;;;;;;3.95;1.10;;;;;;;;;;5132588;27;20440;-85
2022/11/21 05:41:50;;;;;;;2.33;1.08;;;;;;;;;;5131591;27;20423;-85
2022/11/21 05:44:16;;;;;;;2.42;0.68;;;;;;;;;;5131416;27;20914;-85
2022/11/21 05:46:42;;;;;;;4.80;0.90;;;;;;;;;;5132545;27;20494;-85
2022/11/21 05:49:08;;;;;;;2.05;0.60;;;;;;;;;;5133002;27;20763;-85
2022/11/21 05:51:35;;;;;;;2.10;0.60;;;;;;;;;;5132293;27;20934;-84
2022/11/21 05:54:01;;;;;;;2.40;0.80;;;;;;;;;;5132370;27;20417;-85
2022/11/21 05:56:27;;;;;;;1.80;0.63;;;;;;;;;;5132471;27;20382;-85
2022/11/21 05:58:56;;;;;;;1.45;0.70;;;;;;;;;;5132452;27;20378;-85
2022/11/21 06:04:07;;;;;;;2.65;0.85;;;;;;;;;;5134752;27;20455;-84
2022/11/21 06:06:33;;;;;;;1.83;0.47;;;;;;;;;;5136401;27;20378;-84
2022/11/21 06:08:59;;;;;;;2.03;0.60;;;;;;;;;;5132619;27;20378;-84
2022/11/21 06:11:26;;;;;;;1.55;0.60;;;;;;;;;;5136179;27;20401;-84
2022/11/21 06:13:52;;;;;;;1.80;0.60;;;;;;;;;;5136547;27;20767;-85
2022/11/21 06:16:19;;;;;;;1.58;0.55;;;;;;;;;;5136236;27;20374;-85
2022/11/21 06:18:46;;;;;;;1.05;0.50;;;;;;;;;;5136107;27;20378;-85
2022/11/21 06:21:13;;;;;;;1.92;0.50;;;;;;;;;;5136135;27;20366;-85
2022/11/21 06:23:39;;;;;;;0.93;0.47;;;;;;;;;;5117428;27;20382;-85
2022/11/21 06:26:07;;;;;;;1.40;0.60;;;;;;;;;;5136046;27;20483;-84
2022/11/21 06:28:34;;;;;;;1.52;0.63;;;;;;;;;;5135946;27;21018;-86
2022/11/21 06:31:04;;;;;;;1.15;0.60;;;;;;;;;;5135800;27;20410;-84
2022/11/21 06:33:30;;;;;;;1.98;0.77;;;;;;;;;;5126843;27;20443;-85
2022/11/21 06:35:56;;;;;;;2.53;1.00;;;;;;;;;;5135901;27;20848;-85
2022/11/21 06:38:22;;;;;;;3.80;1.10;;;;;;;;;;5135566;27;20373;-86
2022/11/21 06:40:48;;;;;;;2.92;1.15;;;;;;;;;;5135563;27;20432;-85
2022/11/21 06:43:14;;;;;;;2.47;0.93;;;;;;;;;;5135746;27;20382;-85
2022/11/21 06:45:40;;;;;;;2.20;0.80;;;;;;;;;;5145674;27;20744;-85
2022/11/21 06:48:06;;;;;;;1.40;0.70;;;;;;;;;;5121787;27;20379;-85
2022/11/21 06:50:32;;;;;;;2.10;1.00;;;;;;;;;;5131376;27;20448;-86
2022/11/21 06:52:58;;;;;;;3.63;0.90;;;;;;;;;;5131607;27;20457;-85
2022/11/21 06:55:26;;;;;;;2.28;1.10;;;;;;;;;;5115520;27;20373;-86
2022/11/21 06:57:52;;;;;;;2.05;1.00;;;;;;;;;;5118275;27;20423;-85
2022/11/21 07:00:19;;;;;;;1.52;0.82;;;;;;;;;;5127558;27;20376;-85
2022/11/21 07:02:45;;;;;;;1.05;0.95;;;;;;;;;;5129661;27;20736;-85
2022/11/21 07:05:11;;;;;;;3.50;1.10;;;;;;;;;;5130228;27;20462;-86
2022/11/21 07:07:37;;;;;;;3.13;1.48;;;;;;;;;;5118576;27;20881;-85
2022/11/21 07:10:03;;;;;;;1.83;1.00;;;;;;;;;;5113383;27;20381;-86
2022/11/21 07:15:14;;;;;;;1.88;1.20;;;;;;;;;;5124432;27;20378;-84
2022/11/21 07:17:40;;;;;;;1.75;1.20;;;;;;;;;;5120230;27;20377;-84
2022/11/21 07:20:06;;;;;;;3.15;1.30;;;;;;;;;;5117399;27;20361;-84
2022/11/21 07:22:32;;;;;;;2.85;1.77;;;;;;;;;;5116884;27;20387;-85
2022/11/21 07:24:58;;;;;;;2.25;1.10;;;;;;;;;;5115783;27;20384;-86
2022/11/21 07:27:24;;;;;;;2.22;1.27;;;;;;;;;;5134798;27;20371;-87
2022/11/21 07:29:50;;;;;;;1.95;0.85;;;;;;;;;;5134700;27;20423;-86
2022/11/21 07:32:16;;;;;;;2.35;1.10;;;;;;;;;;5126685;27;20390;-87
2022/11/21 07:34:42;;;;;;;2.67;0.85;;;;;;;;;;5134684;27;20374;-86
2022/11/21 07:37:08;;;;;;;2.05;1.00;;;;;;;;;;5134448;27;20382;-86
2022/11/21 07:39:34;;;;;;;2.67;1.00;;;;;;;;;;5134026;27;20420;-85
2022/11/21 07:42:00;;;;;;;4.05;1.10;;;;;;;;;;5134309;27;20731;-85
2022/11/21 07:44:26;;;;;;;2.67;1.02;;;;;;;;;;5134426;27;20436;-86
2022/11/21 07:46:55;;;;;;;3.13;1.20;;;;;;;;;;5134390;27;20394;-86
2022/11/21 07:49:21;;;;;;;2.17;0.98;;;;;;;;;;5134369;27;21180;-85
2022/11/21 07:51:47;;;;;;;1.88;1.13;;;;;;;;;;5134198;27;20414;-86
2022/11/21 07:54:13;;;;;;;2.13;1.23;;;;;;;;;;5134161;27;20367;-86
2022/11/21 07:56:39;;;;;;;2.73;1.97;;;;;;;;;;5134755;27;20461;-85
2022/11/21 07:59:05;;;;;;;3.38;1.40;;;;;;;;;;5134532;27;20375;-86
2022/11/21 08:01:31;;;;;;;2.08;1.63;;;;;;;;;;5135704;27;20421;-85
2022/11/21 08:03:57;;;;;;;6.82;4.30;;;;;;;;;;5143093;27;20482;-85
2022/11/21 08:06:23;;;;;;;4.10;3.17;;;;;;;;;;5126279;27;20804;-84
2022/11/21 08:08:53;;;;;;;5.40;3.30;;;;;;;;;;5117821;27;21138;-85
2022/11/21 08:11:19;;;;;;;3.63;2.77;;;;;;;;;;5133822;27;20517;-86
2022/11/21 08:13:45;;;;;;;3.17;1.27;;;;;;;;;;5135194;27;20378;-87
2022/11/21 08:16:11;;;;;;;3.73;1.60;;;;;;;;;;5131202;27;20502;-87
2022/11/21 08:18:37;;;;;;;2.97;1.40;;;;;;;;;;5132526;27;20371;-87
2022/11/21 08:21:03;;;;;;;4.60;1.35;;;;;;;;;;5134188;27;20370;-86
2022/11/21 08:23:30;;;;;;;1.75;1.20;;;;;;;;;;5134210;27;20382;-87
2022/11/21 08:25:56;;;;;;;2.95;1.95;;;;;;;;;;5133439;27;20859;-85
2022/11/21 08:28:22;;;;;;;2.95;2.13;;;;;;;;;;5133870;27;20378;-85
2022/11/21 08:30:48;;;;;;;3.00;1.70;;;;;;;;;;5131449;27;20403;-86
2022/11/21 08:33:14;;;;;;;5.18;1.40;;;;;;;;;;5133600;27;20873;-85
2022/11/21 08:35:41;;;;;;;2.78;1.02;;;;;;;;;;5133775;27;20412;-85
2022/11/21 08:38:07;;;;;;;1.63;0.90;;;;;;;;;;5133720;27;20385;-86
2022/11/21 08:40:34;;;;;;;2.78;1.23;;;;;;;;;;5133448;27;20410;-85
2022/11/21 08:43:01;;;;;;;2.83;1.25;;;;;;;;;;5129887;27;20503;-86
2022/11/21 08:45:27;;;;;;;2.40;0.98;;;;;;;;;;5127467;27;20732;-85
2022/11/21 08:47:53;;;;;;;3.20;1.20;;;;;;;;;;5109806;27;20394;-85
2022/11/21 08:50:20;;;;;;;2.05;1.05;;;;;;;;;;5132718;27;20949;-85
2022/11/21 08:52:46;;;;;;;2.58;0.80;;;;;;;;;;5133160;27;20379;-85
2022/11/21 08:55:12;;;;;;;1.70;0.70;;;;;;;;;;5133068;27;20427;-86
2022/11/21 08:57:38;;;;;;;1.95;0.80;;;;;;;;;;5133344;27;20374;-85
2022/11/21 09:00:05;;;;;;;2.78;1.30;;;;;;;;;;5137179;27;20376;-85
2022/11/21 09:02:31;;;;;;;3.28;1.52;;;;;;;;;;5132604;27;20382;-85
2022/11/21 09:04:57;;;;;;;2.88;1.40;;;;;;;;;;5132951;27;20386;-85
2022/11/21 09:07:23;;;;;;;1.98;1.05;;;;;;;;;;5133070;27;20851;-85
2022/11/21 09:09:49;;;;;;;3.97;1.30;;;;;;;;;;5132793;27;20379;-84
2022/11/21 09:12:15;;;;;;;3.05;1.17;;;;;;;;;;5132722;27;20562;-84
2022/11/21 09:20:10;;;;;;;3.00;1.70;;;;;;;;;;5132991;27;20374;-84
2022/11/21 09:22:36;;;;;;;4.78;1.40;;;;;;;;;;5132676;27;20370;-85
2022/11/21 09:25:02;;;;;;;5.63;2.00;;;;;;;;;;5134606;27;20382;-85
2022/11/21 09:27:29;;;;;;;4.00;1.88;;;;;;;;;;5124336;27;20382;-84
2022/11/21 09:29:55;;;;;;;8.80;2.40;;;;;;;;;;5132733;27;20952;-84
2022/11/21 09:32:22;;;;;;;7.20;2.08;;;;;;;;;;5132523;27;20399;-84
2022/11/21 09:34:48;;;;;;;4.82;1.55;;;;;;;;;;5132818;27;21021;-84
2022/11/21 09:37:14;;;;;;;4.15;1.48;;;;;;;;;;5132703;27;20732;-84
2022/11/21 09:39:40;;;;;;;4.85;1.60;;;;;;;;;;5135802;27;20370;-83
2022/11/21 09:42:24;;;;;;;3.78;1.55;;;;;;;;;;5136876;27;20370;-84
2022/11/21 09:45:09;;;;;;;2.63;1.25;;;;;;;;;;5136960;27;20909;-83
2022/11/21 09:47:41;;;;;;;3.30;1.55;;;;;;;;;;5136770;27;20447;-84
2022/11/21 09:50:13;;;;;;;4.10;1.70;;;;;;;;;;5127918;27;20420;-83
2022/11/21 09:52:44;;;;;;;5.95;2.90;;;;;;;;;;5132940;27;20477;-83
2022/11/21 09:55:28;;;;;;;5.53;3.07;;;;;;;;;;5122735;27;20450;-84
2022/11/21 09:57:54;;;;;;;5.32;2.10;;;;;;;;;;5120989;27;20421;-83
2022/11/21 10:00:24;;;;;;;2.75;1.35;;;;;;;;;;5136510;27;20447;-83
2022/11/21 10:02:51;;;;;;;7.22;1.77;;;;;;;;;;5121437;27;20479;-83
2022/11/21 10:05:20;;;;;;;5.90;1.50;;;;;;;;;;5136449;27;20367;-84
2022/11/21 10:07:47;;;;;;;5.30;1.53;;;;;;;;;;5133068;27;20792;-84
2022/11/21 10:10:25;;;;;;;6.23;1.60;;;;;;;;;;5122929;27;20425;-84
2022/11/21 10:13:00;;;;;;;7.00;1.50;;;;;;;;;;5130794;27;20426;-83
2022/11/21 10:15:26;;;;;;;7.28;1.80;;;;;;;;;;5136165;27;20414;-84
2022/11/21 10:18:01;;;;;;;8.00;1.90;;;;;;;;;;5128664;27;20393;-83
2022/11/21 10:20:30;;;;;;;10.68;2.08;;;;;;;;;;5133698;27;20436;-84
2022/11/21 10:23:03;;;;;;;7.13;2.00;;;;;;;;;;5131782;27;20887;-84
2022/11/21 10:25:32;;;;;;;6.43;1.80;;;;;;;;;;5133956;27;20956;-83
2022/11/21 10:28:04;;;;;;;6.18;1.50;;;;;;;;;;5134353;27;20389;-83
2022/11/21 10:30:30;;;;;;;7.78;2.10;;;;;;;;;;5134110;27;20751;-84
2022/11/21 10:32:57;;;;;;;5.90;1.80;;;;;;;;;;5135997;27;20373;-84
2022/11/21 10:35:40;;;;;;;6.07;1.63;;;;;;;;;;5135087;27;20461;-84
2022/11/21 10:38:21;;;;;;;5.57;1.63;;;;;;;;;;5133101;27;20374;-84
2022/11/21 10:40:50;;;;;;;7.15;1.90;;;;;;;;;;5135406;27;20466;-83
2022/11/21 10:46:10;;;;;;;4.82;2.00;;;;;;;;;;5135281;27;20443;-85
2022/11/21 10:48:36;;;;;;;6.05;1.80;;;;;;;;;;5134895;27;20390;-85
2022/11/21 10:51:23;;;;;;;6.13;1.80;;;;;;;;;;5133894;27;20489;-83
2022/11/21 10:56:46;;;;;;;8.05;1.80;;;;;;;;;;5135523;27;20367;-85
2022/11/21 10:59:19;;;;;;;7.75;2.00;;;;;;;;;;5132470;27;20382;-85
2022/11/21 11:01:54;;;;;;;5.47;1.80;;;;;;;;;;5138033;27;20463;-83
2022/11/21 11:04:20;;;;;;;5.55;2.08;;;;;;;;;;5135284;27;20858;-86
2022/11/21 11:06:46;;;;;;;6.63;1.50;;;;;;;;;;5135226;27;20880;-83
2022/11/21 11:09:23;;;;;;;4.38;1.80;;;;;;;;;;5126207;27;20388;-83
2022/11/21 11:11:49;;;;;;;5.68;1.50;;;;;;;;;;5120768;27;20409;-85
2022/11/21 11:14:17;;;;;;;4.68;1.65;;;;;;;;;;5135186;27;20367;-86
2022/11/21 11:16:44;;;;;;;6.72;1.60;;;;;;;;;;5135046;27;20363;-85
2022/11/21 11:19:13;;;;;;;6.90;1.77;;;;;;;;;;5134734;27;20938;-86
2022/11/21 11:21:43;;;;;;;10.00;1.90;;;;;;;;;;5116324;27;20401;-86
2022/11/21 11:24:09;;;;;;;8.70;1.70;;;;;;;;;;5141654;27;20377;-86
2022/11/21 11:26:49;;;;;;;5.88;2.00;;;;;;;;;;5134454;27;20481;-86
2022/11/21 11:29:21;;;;;;;5.78;1.60;;;;;;;;;;5144573;27;20888;-86
2022/11/21 11:32:00;;;;;;;6.95;1.50;;;;;;;;;;5121166;27;20425;-86
2022/11/21 11:34:47;;;;;;;4.90;1.58;;;;;;;;;;5125372;27;20382;-86
2022/11/21 11:37:19;;;;;;;6.75;1.48;;;;;;;;;;5136349;27;20423;-87
2022/11/21 11:39:48;;;;;;;6.03;2.20;;;;;;;;;;5137473;27;20371;-86
2022/11/21 11:47:58;;;;;;;6.65;1.92;;;;;;;;;;5136386;27;20840;-86
2022/11/21 11:50:32;;;;;;;5.80;1.80;;;;;;;;;;5127298;27;20466;-86
2022/11/21 11:53:05;;;;;;;4.10;1.60;;;;;;;;;;5135037;27;20450;-87
2022/11/21 11:55:41;;;;;;;6.20;1.60;;;;;;;;;;5134661;27;20466;-86
2022/11/21 11:58:12;;;;;;;7.38;1.73;;;;;;;;;;5134428;27;20371;-86
2022/11/21 12:00:51;;;;;;;7.40;1.70;;;;;;;;;;5133731;27;20386;-85
2022/11/21 12:03:24;;;;;;;6.03;1.50;;;;;;;;;;5132405;27;20428;-86
2022/11/21 12:06:00;;;;;;;5.57;1.23;;;;;;;;;;5127058;27;20443;-86
2022/11/21 12:08:47;;;;;;;5.00;1.60;;;;;;;;;;5133626;27;20430;-86
2022/11/21 12:14:11;;;;;;;4.40;1.40;;;;;;;;;;5134385;27;20373;-86
2022/11/21 12:16:38;;;;;;;3.90;1.60;;;;;;;;;;5116033;27;20490;-86
2022/11/21 12:19:12;;;;;;;3.63;1.30;;;;;;;;;;5133872;27;20408;-86
2022/11/21 12:21:38;;;;;;;5.07;1.58;;;;;;;;;;5133743;27;20454;-86
2022/11/21 12:24:04;;;;;;;6.00;1.50;;;;;;;;;;5130049;27;20488;-84
2022/11/21 12:26:48;;;;;;;4.75;1.23;;;;;;;;;;5128735;27;20381;-84
2022/11/21 12:29:21;;;;;;;4.07;1.30;;;;;;;;;;5109799;28;20880;-84
2022/11/21 12:31:59;;;;;;;3.45;1.00;;;;;;;;;;5096926;27;20803;-84
2022/11/21 12:34:44;;;;;;;4.32;1.30;;;;;;;;;;5115367;27;20400;-84
2022/11/21 12:37:17;;;;;;;4.45;1.48;;;;;;;;;;5116561;27;21046;-83
2022/11/21 12:39:59;;;;;;;4.00;1.10;;;;;;;;;;5120449;27;20363;-84
2022/11/21 12:42:50;;;;;;;3.83;1.23;;;;;;;;;;5132378;27;20374;-84
2022/11/21 12:45:23;;;;;;;5.27;1.27;;;;;;;;;;5113601;27;20823;-83
2022/11/21 12:56:45;;;;;;;4.85;1.38;;;;;;;;;;5129280;27;20354;-85
2022/11/21 12:59:13;;;;;;;3.15;1.25;;;;;;;;;;5133157;27;20453;-85
2022/11/21 13:02:05;;;;;;;2.50;0.90;;;;;;;;;;5126083;27;20416;-86
2022/11/21 13:04:39;;;;;;;4.00;1.05;;;;;;;;;;5124545;27;20371;-89
2022/11/21 13:07:05;;;;;;;3.80;1.17;;;;;;;;;;5132381;27;20414;-87
2022/11/21 13:09:37;;;;;;;3.88;1.40;;;;;;;;;;5132901;27;20736;-86
2022/11/21 13:12:09;;;;;;;4.00;1.30;;;;;;;;;;5132714;27;20815;-88
2022/11/21 13:14:44;;;;;;;4.57;1.20;;;;;;;;;;5132839;27;20374;-88
2022/11/21 13:17:15;;;;;;;5.22;1.30;;;;;;;;;;5133040;27;20375;-87
2022/11/21 13:19:56;;;;;;;2.72;1.00;;;;;;;;;;5132943;27;20359;-87
2022/11/21 13:22:34;;;;;;;2.65;0.98;;;;;;;;;;5132980;27;20367;-87
2022/11/21 13:25:02;;;;;;;2.70;0.90;;;;;;;;;;5123648;27;20732;-88
2022/11/21 13:27:29;;;;;;;2.97;0.80;;;;;;;;;;5132828;27;20381;-88
2022/11/21 13:30:10;;;;;;;2.45;0.80;;;;;;;;;;5135510;27;20374;-87
2022/11/21 13:32:43;;;;;;;2.80;0.93;;;;;;;;;;5132649;27;20403;-87
2022/11/21 13:35:18;;;;;;;2.72;1.02;;;;;;;;;;5132846;27;20380;-88
2022/11/21 13:38:03;;;;;;;2.67;1.00;;;;;;;;;;5129460;27;20423;-88
2022/11/21 13:40:29;;;;;;;3.03;1.30;;;;;;;;;;5132500;27;20409;-88
2022/11/21 13:43:14;;;;;;;7.57;1.52;;;;;;;;;;5132757;27;20731;-88
2022/11/21 13:45:44;;;;;;;2.92;1.05;;;;;;;;;;5114140;27;20398;-88
2022/11/21 13:48:21;;;;;;;2.90;1.23;;;;;;;;;;5132645;27;20366;-86
2022/11/21 13:51:13;;;;;;;3.30;1.15;;;;;;;;;;5132478;27;20402;-86
2022/11/21 13:53:41;;;;;;;2.60;1.27;;;;;;;;;;5132662;27;20371;-87
2022/11/21 13:56:25;;;;;;;3.75;1.50;;;;;;;;;;5132495;27;20789;-87
2022/11/21 13:58:51;;;;;;;2.80;1.20;;;;;;;;;;5111530;28;20381;-87
2022/11/21 14:01:46;;;;;;;3.30;1.30;;;;;;;;;;5132377;27;20796;-88
2022/11/21 14:04:20;;;;;;;3.88;1.10;;;;;;;;;;5132475;27;20382;-87
2022/11/21 14:06:46;;;;;;;3.80;1.45;;;;;;;;;;5132491;27;20371;-87
2022/11/21 14:09:12;;;;;;;3.92;1.35;;;;;;;;;;5113987;28;20389;-87
2022/11/21 14:11:53;;;;;;;2.67;1.48;;;;;;;;;;5132233;27;20406;-86
2022/11/21 14:14:27;;;;;;;2.63;1.30;;;;;;;;;;5132465;27;20366;-88
2022/11/21 14:17:13;;;;;;;3.15;1.85;;;;;;;;;;5132306;27;20366;-87
2022/11/21 14:19:40;;;;;;;4.05;1.90;;;;;;;;;;5114948;27;20375;-87
2022/11/21 14:22:13;;;;;;;4.90;1.88;;;;;;;;;;5114006;28;20874;-88
2022/11/21 14:24:39;;;;;;;3.60;1.55;;;;;;;;;;5124904;27;20380;-88
2022/11/21 14:27:06;;;;;;;4.97;1.50;;;;;;;;;;5135899;27;20383;-88
2022/11/21 14:29:39;;;;;;;3.58;1.75;;;;;;;;;;5136088;27;20378;-87
2022/11/21 14:32:06;;;;;;;3.03;1.50;;;;;;;;;;5135711;27;20469;-88
2022/11/21 14:34:32;;;;;;;2.83;1.23;;;;;;;;;;5136151;27;20371;-88
2022/11/21 14:36:59;;;;;;;6.60;1.67;;;;;;;;;;5135949;27;20458;-88
2022/11/21 14:39:27;;;;;;;3.70;1.35;;;;;;;;;;5135673;27;20371;-88
2022/11/21 14:41:57;;;;;;;2.47;1.23;;;;;;;;;;5135693;27;20855;-88
2022/11/21 14:44:23;;;;;;;2.80;1.42;;;;;;;;;;5135708;27;20366;-88
2022/11/21 14:46:50;;;;;;;2.80;1.30;;;;;;;;;;5138300;27;20442;-87
2022/11/21 14:49:16;;;;;;;2.75;1.38;;;;;;;;;;5135729;27;20852;-87
2022/11/21 14:51:43;;;;;;;4.90;1.40;;;;;;;;;;5135418;27;20405;-87
2022/11/21 14:54:14;;;;;;;3.53;1.30;;;;;;;;;;5116967;27;20905;-88
2022/11/21 14:56:40;;;;;;;3.38;1.30;;;;;;;;;;5134239;27;20406;-87
2022/11/21 14:59:11;;;;;;;4.80;1.50;;;;;;;;;;5135623;27;20378;-87
2022/11/21 15:01:37;;;;;;;5.95;1.63;;;;;;;;;;5135451;27;20363;-88
2022/11/21 15:04:04;;;;;;;3.28;1.95;;;;;;;;;;5135390;27;20735;-87
2022/11/21 15:06:32;;;;;;;3.97;1.95;;;;;;;;;;5135326;27;20393;-87
2022/11/21 15:08:59;;;;;;;3.50;1.77;;;;;;;;;;5135271;27;20367;-87
2022/11/21 15:11:30;;;;;;;3.55;1.50;;;;;;;;;;5134929;27;20399;-87
2022/11/21 15:13:58;;;;;;;3.20;1.50;;;;;;;;;;5139908;27;20371;-89
2022/11/21 15:16:25;;;;;;;4.68;1.50;;;;;;;;;;5141754;27;20382;-87
2022/11/21 15:18:51;;;;;;;3.05;2.10;;;;;;;;;;5142901;27;20370;-87
2022/11/21 15:21:17;;;;;;;5.03;1.80;;;;;;;;;;5154712;27;20394;-86
2022/11/21 15:23:44;;;;;;;4.50;1.58;;;;;;;;;;5134889;27;20433;-88
2022/11/21 15:26:45;;;;;;;2.58;1.33;;;;;;;;;;5133284;27;20378;-87
2022/11/21 15:29:19;;;;;;;3.83;1.30;;;;;;;;;;5036689;28;20391;-88